Terminal Aerodrome Forecast
Issued by NWS Albany, NY

Home | Current Version | Previous Version | Text Only | Print | Product List | Glossary On
Versions: 1 2 3 4 5 6 7 8 9 10 11 12 13 14 15 16
000
FTUS41 KALY 261100
TAFPOU
TAF
KPOU 261138Z 2612/2712 00000KT P6SM SCT250
     FM261300 VRB03KT P6SM SCT250
     FM261600 23007KT P6SM FEW040 SCT250
     FM262100 23006KT P6SM SCT040 SCT120 SCT250
     FM270300 18003KT P6SM BKN250
     FM270900 20004KT 3SM SHRA OVC025=

USA.gov is the U.S. government's official web portal to all federal, state and local government web resources and services.